KGAO

South Lafourche Leonard Miller Jr Airport

Galliano, Louisiana, USA
METAR KGAO 172055Z AUTO 03003KT 7SM RA BKN003 BKN011 OVC023 20/18 A3009 RMK AO2 LTG DSNT S P0001 60001 T01970180
Observed Flight Rules
Dec-17 @ 20:55 UTC (20 minutes ago) Instrument Flight Rules
Wind Visibility Clouds Conditions
30° at 3 knots 7 miles
  • Broken at 300' AGL
  • Broken at 1,100' AGL
  • Overcast at 2,300' AGL
  • Rain
Temperatures Readings Precipitation
Current 20°C / 68°F
Dewpoint 18°C / 64°F
Humidity 88%
Altimeter 30.09" Hg
Pressure 1019 hPa
Elevation 1
Current Rain 0.01
METAR KGAO 172055Z AUTO 03003KT 7SM RA BKN003 BKN011 OVC023 20/18 A3009 RMK AO2 LTG DSNT S P0001 60001 T01970180
Observed Flight Rules
Dec-17 @ 20:55 UTC
(20 minutes ago)
LIFR
Wind Visibility
30° at 3 knots 7 miles
Clouds
  • Broken at 300' AGL
  • Broken at 1,100' AGL
  • Overcast at 2,300' AGL
Conditions
  • Rain
Temperature Dewpoint
20°C / 68°F 18°C / 64°F
Humidity Altimeter Pressure
88% 30.09" Hg 1019 hPa
Current Rain
0.01